createdAt,value
2023-03-03T00:00:46.354Z,20.67
2023-03-03T00:03:19.280Z,17.33
2023-03-03T00:05:49.571Z,17.00
2023-03-03T00:08:18.919Z,21.00
2023-03-03T00:10:47.695Z,21.87
2023-03-03T00:13:19.445Z,20.23
2023-03-03T00:15:48.162Z,18.73
2023-03-03T00:18:29.292Z,16.77
2023-03-03T00:21:01.444Z,23.73
2023-03-03T00:23:37.032Z,20.20
2023-03-03T00:26:18.004Z,19.27
2023-03-03T00:28:48.429Z,19.60
2023-03-03T00:31:20.111Z,23.67
2023-03-03T00:33:54.823Z,21.07
2023-03-03T00:36:32.650Z,18.10
2023-03-03T00:39:19.694Z,21.80
2023-03-03T00:41:47.908Z,25.30
2023-03-03T00:44:43.569Z,22.83
2023-03-03T00:47:31.200Z,21.87
2023-03-03T00:50:35.076Z,17.67
2023-03-03T00:53:13.098Z,23.37
2023-03-03T00:55:41.628Z,19.33
2023-03-03T00:58:10.271Z,20.40
2023-03-03T01:00:43.191Z,15.43
2023-03-03T01:03:17.161Z,18.53
2023-03-03T01:06:11.804Z,20.77
2023-03-03T01:08:41.409Z,16.40
2023-03-03T01:11:13.266Z,22.00
2023-03-03T01:13:45.680Z,19.40
2023-03-03T01:16:13.978Z,20.57
2023-03-03T01:18:42.580Z,24.57
2023-03-03T01:21:12.386Z,15.80
2023-03-03T01:23:41.901Z,17.83
2023-03-03T01:26:10.651Z,21.53
2023-03-03T01:28:40.316Z,21.90
2023-03-03T01:31:08.974Z,24.37
2023-03-03T01:33:38.084Z,23.43
2023-03-03T01:36:09.283Z,19.00
2023-03-03T01:38:37.876Z,16.57
2023-03-03T01:41:08.215Z,23.40
2023-03-03T01:43:36.478Z,20.47
2023-03-03T01:46:53.469Z,19.77
2023-03-03T01:49:26.956Z,20.53
2023-03-03T01:51:59.706Z,22.53
2023-03-03T01:54:32.279Z,21.73
2023-03-03T01:57:06.669Z,19.93
2023-03-03T01:59:39.086Z,20.60
2023-03-03T02:02:07.704Z,20.23
2023-03-03T02:04:36.749Z,24.27
2023-03-03T02:07:11.009Z,26.73
2023-03-03T02:09:51.958Z,19.10
2023-03-03T02:12:28.282Z,24.37
2023-03-03T02:14:56.542Z,24.03
2023-03-03T02:17:24.968Z,22.90
2023-03-03T02:20:01.108Z,23.30
2023-03-03T02:22:39.789Z,20.87
2023-03-03T02:25:13.083Z,24.80
2023-03-03T02:27:42.687Z,18.77
2023-03-03T02:30:16.938Z,23.20
2023-03-03T02:32:45.534Z,22.70
2023-03-03T02:35:32.108Z,20.70
2023-03-03T02:38:11.190Z,22.37
2023-03-03T02:40:46.737Z,21.60
2023-03-03T02:43:20.347Z,20.33
2023-03-03T02:45:48.650Z,19.77
2023-03-03T02:48:16.881Z,21.63
2023-03-03T02:50:46.018Z,19.37
2023-03-03T02:53:14.664Z,19.77
2023-03-03T02:55:43.034Z,20.97
2023-03-03T02:58:11.358Z,19.00
2023-03-03T03:00:41.060Z,19.83
2023-03-03T03:03:09.406Z,20.83
2023-03-03T03:05:39.957Z,24.43
2023-03-03T03:08:08.538Z,19.97
2023-03-03T03:10:37.631Z,19.50
2023-03-03T03:13:07.050Z,19.77
2023-03-03T03:15:37.245Z,18.60
2023-03-03T03:18:07.514Z,19.87
2023-03-03T03:20:40.048Z,22.00
2023-03-03T03:23:09.188Z,19.70
2023-03-03T03:25:42.668Z,19.30
2023-03-03T03:28:11.100Z,19.13
2023-03-03T03:30:39.786Z,19.07
2023-03-03T03:33:10.203Z,18.67
2023-03-03T03:35:40.518Z,22.33
2023-03-03T03:38:09.138Z,21.90
2023-03-03T03:40:37.392Z,21.93
2023-03-03T03:43:06.811Z,25.80
2023-03-03T03:45:35.260Z,23.57
2023-03-03T03:48:05.402Z,27.40
2023-03-03T03:50:35.433Z,23.60
2023-03-03T03:53:03.709Z,19.77
2023-03-03T03:55:32.637Z,21.07
2023-03-03T03:58:01.208Z,19.90
2023-03-03T04:00:54.608Z,21.20
2023-03-03T04:03:23.445Z,25.10
2023-03-03T04:05:55.456Z,21.30
2023-03-03T04:08:24.354Z,25.43
2023-03-03T04:10:52.685Z,20.17
2023-03-03T04:13:21.286Z,24.80
2023-03-03T04:15:49.584Z,24.60
2023-03-03T04:18:18.368Z,23.23
2023-03-03T04:20:48.112Z,24.60
2023-03-03T04:23:17.834Z,25.80
2023-03-03T04:25:47.990Z,23.87
2023-03-03T04:28:18.204Z,31.50
2023-03-03T04:30:47.133Z,23.13
2023-03-03T04:33:18.073Z,22.90
2023-03-03T04:35:48.185Z,24.00
2023-03-03T04:38:18.218Z,20.20
2023-03-03T04:40:48.210Z,22.53
2023-03-03T04:43:17.660Z,21.37
2023-03-03T04:45:46.172Z,20.87
2023-03-03T04:48:14.679Z,21.50
2023-03-03T04:50:43.539Z,29.73
2023-03-03T04:53:12.015Z,23.67
2023-03-03T04:55:43.992Z,21.53
2023-03-03T04:58:12.535Z,19.90
2023-03-03T05:00:41.614Z,20.77
2023-03-03T05:03:13.342Z,22.03
2023-03-03T05:05:43.375Z,23.57
2023-03-03T05:08:11.583Z,19.33
2023-03-03T05:10:39.991Z,22.67
2023-03-03T05:13:10.216Z,20.20
2023-03-03T05:15:38.553Z,22.53
2023-03-03T05:18:06.974Z,24.43
2023-03-03T05:20:35.287Z,25.17
2023-03-03T05:23:03.554Z,23.17
2023-03-03T05:25:31.817Z,28.43
2023-03-03T05:28:04.819Z,25.33
2023-03-03T05:30:34.507Z,23.47
2023-03-03T05:33:02.749Z,24.07
2023-03-03T05:35:31.007Z,22.70
2023-03-03T05:37:59.457Z,23.83
2023-03-03T05:40:28.847Z,21.20
2023-03-03T05:42:57.077Z,21.47
2023-03-03T05:45:26.022Z,20.57
2023-03-03T05:47:56.004Z,21.47
2023-03-03T05:50:25.228Z,22.33
2023-03-03T05:52:54.104Z,20.33
2023-03-03T05:55:22.391Z,25.83
2023-03-03T05:57:50.615Z,27.60
2023-03-03T06:00:20.385Z,28.37
2023-03-03T06:02:48.788Z,24.07
2023-03-03T06:05:18.618Z,21.17
2023-03-03T06:07:46.832Z,26.20
2023-03-03T06:10:15.136Z,22.83
2023-03-03T06:12:47.315Z,21.73
2023-03-03T06:15:18.290Z,25.47
2023-03-03T06:17:46.606Z,24.03
2023-03-03T06:20:14.932Z,24.37
2023-03-03T06:22:44.568Z,28.53
2023-03-03T06:25:12.877Z,20.97
2023-03-03T06:27:41.492Z,24.13
2023-03-03T06:30:12.914Z,25.20
2023-03-03T06:32:41.312Z,23.60
2023-03-03T06:35:09.947Z,23.17
2023-03-03T06:37:38.227Z,24.97
2023-03-03T06:40:09.851Z,23.67
2023-03-03T06:42:38.158Z,26.37
2023-03-03T06:45:07.587Z,23.87
2023-03-03T06:47:35.836Z,27.97
2023-03-03T06:50:04.180Z,23.37
2023-03-03T06:52:32.434Z,24.87
2023-03-03T06:55:03.933Z,27.40
2023-03-03T06:57:34.864Z,28.17
2023-03-03T07:00:17.059Z,28.00
2023-03-03T07:02:45.489Z,24.50
2023-03-03T07:05:17.860Z,25.83
2023-03-03T07:07:46.333Z,28.97
2023-03-03T07:10:23.969Z,28.27
2023-03-03T07:12:53.754Z,29.77
2023-03-03T07:15:25.054Z,22.30
2023-03-03T07:17:59.731Z,31.00
2023-03-03T07:20:35.225Z,27.70
2023-03-03T07:23:19.335Z,24.20
2023-03-03T07:25:48.621Z,27.67
2023-03-03T07:28:25.203Z,30.00
2023-03-03T07:30:53.940Z,23.47
2023-03-03T07:33:28.921Z,29.50
2023-03-03T07:35:59.466Z,29.10
2023-03-03T07:38:36.114Z,28.50
2023-03-03T07:41:07.251Z,26.50
2023-03-03T07:43:44.873Z,31.83
2023-03-03T07:46:27.779Z,28.37
2023-03-03T07:48:59.014Z,28.30
2023-03-03T07:51:29.805Z,35.70
2023-03-03T07:54:22.352Z,39.47
2023-03-03T07:56:50.629Z,39.40
2023-03-03T07:59:24.229Z,42.93
2023-03-03T08:02:00.572Z,42.13
2023-03-03T08:04:35.620Z,36.80
2023-03-03T08:07:04.915Z,43.70
2023-03-03T08:09:51.096Z,40.60
2023-03-03T08:12:42.100Z,35.70
2023-03-03T08:15:23.864Z,40.40
2023-03-03T08:17:54.275Z,32.53
2023-03-03T08:20:50.984Z,36.90
2023-03-03T08:23:21.710Z,32.97
2023-03-03T08:25:52.351Z,34.47
2023-03-03T08:28:22.132Z,32.70
2023-03-03T08:31:02.583Z,31.63
2023-03-03T08:33:37.361Z,29.83
2023-03-03T08:36:07.640Z,35.23
2023-03-03T08:38:35.963Z,33.07
2023-03-03T08:41:04.674Z,34.60
2023-03-03T08:43:33.227Z,30.77
2023-03-03T08:46:05.568Z,29.93
2023-03-03T08:48:34.778Z,33.93
2023-03-03T08:51:03.209Z,31.30
2023-03-03T08:53:33.648Z,36.63
2023-03-03T08:56:01.904Z,33.50
2023-03-03T08:58:35.632Z,31.07
2023-03-03T09:01:06.410Z,30.90
2023-03-03T09:03:34.853Z,32.00
2023-03-03T09:06:13.477Z,29.67
2023-03-03T09:08:41.749Z,33.43
2023-03-03T09:11:13.642Z,32.23
2023-03-03T09:13:41.992Z,30.63
2023-03-03T09:16:16.775Z,30.57
2023-03-03T09:18:45.690Z,29.90
2023-03-03T09:21:24.770Z,29.63
2023-03-03T09:23:57.183Z,32.20
2023-03-03T09:26:30.482Z,31.87
2023-03-03T09:29:26.310Z,29.40
2023-03-03T09:31:57.500Z,35.53
2023-03-03T09:34:33.845Z,34.53
2023-03-03T09:37:02.088Z,36.07
2023-03-03T09:39:32.608Z,29.10
2023-03-03T09:42:32.358Z,32.57
2023-03-03T09:45:30.455Z,33.13
2023-03-03T09:48:20.386Z,34.60
2023-03-03T09:51:03.375Z,31.50
2023-03-03T09:53:53.671Z,33.23
2023-03-03T09:56:31.412Z,30.43
2023-03-03T09:59:19.483Z,31.83
2023-03-03T10:02:00.366Z,31.53
2023-03-03T10:05:19.972Z,29.33
2023-03-03T10:08:36.247Z,33.27
2023-03-03T10:11:18.060Z,33.13
2023-03-03T10:14:05.293Z,32.27
2023-03-03T10:16:54.967Z,30.03
2023-03-03T10:19:38.896Z,34.00
2023-03-03T10:22:24.121Z,34.70
2023-03-03T10:25:10.137Z,34.53
2023-03-03T10:27:53.596Z,32.50
2023-03-03T10:30:44.069Z,29.47
2023-03-03T10:33:26.578Z,36.63
2023-03-03T10:36:13.498Z,29.23
2023-03-03T10:38:56.415Z,30.00
2023-03-03T10:41:43.324Z,37.50
2023-03-03T10:44:37.291Z,32.17
2023-03-03T10:47:47.082Z,33.90
2023-03-03T10:50:22.707Z,28.77
2023-03-03T10:52:56.262Z,31.20
2023-03-03T10:55:43.689Z,30.30
2023-03-03T10:58:33.771Z,31.47
2023-03-03T11:01:12.644Z,30.80
2023-03-03T11:04:11.913Z,35.07
2023-03-03T11:06:47.621Z,29.27
2023-03-03T11:09:37.742Z,33.73
2023-03-03T11:12:22.641Z,32.10
2023-03-03T11:15:01.383Z,31.80
2023-03-03T11:17:47.049Z,31.47
2023-03-03T11:20:31.203Z,32.97
2023-03-03T11:23:18.498Z,30.73
2023-03-03T11:25:53.202Z,33.57
2023-03-03T11:28:44.492Z,33.30
2023-03-03T11:31:21.613Z,30.47
2023-03-03T11:34:01.217Z,36.23
2023-03-03T11:36:35.306Z,34.80
2023-03-03T11:39:06.404Z,33.73
2023-03-03T11:41:39.468Z,32.93
2023-03-03T11:44:23.446Z,29.17
2023-03-03T11:46:55.419Z,31.40
2023-03-03T11:49:30.308Z,33.23
2023-03-03T11:52:15.839Z,31.80
2023-03-03T11:54:53.510Z,35.37
2023-03-03T11:57:29.015Z,32.93
2023-03-03T12:00:09.694Z,28.93
2023-03-03T12:03:18.025Z,31.40
2023-03-03T12:06:01.483Z,34.23
2023-03-03T12:08:56.459Z,32.97
2023-03-03T12:11:28.854Z,29.40
2023-03-03T12:14:04.174Z,34.57
2023-03-03T12:16:48.641Z,35.03
2023-03-03T12:19:45.270Z,32.47
2023-03-03T12:22:30.670Z,32.10
2023-03-03T12:25:25.054Z,32.50
2023-03-03T12:28:01.492Z,34.83
2023-03-03T12:31:10.903Z,33.93
2023-03-03T12:33:54.148Z,30.70
2023-03-03T12:36:38.087Z,35.20
2023-03-03T12:39:17.702Z,34.90
2023-03-03T12:42:03.840Z,36.47
2023-03-03T12:44:41.486Z,34.13
2023-03-03T12:47:22.916Z,33.10
2023-03-03T12:50:08.412Z,32.70
2023-03-03T12:52:48.241Z,29.73
2023-03-03T12:55:27.885Z,34.47
2023-03-03T12:58:05.638Z,30.80
2023-03-03T13:00:52.351Z,31.07
2023-03-03T13:03:53.145Z,30.90
2023-03-03T13:06:31.259Z,33.50
2023-03-03T13:09:24.364Z,30.90
2023-03-03T13:12:32.154Z,30.63
2023-03-03T13:15:17.222Z,28.57
2023-03-03T13:18:01.017Z,34.53
2023-03-03T13:20:40.880Z,34.43
2023-03-03T13:23:23.842Z,36.27
2023-03-03T13:25:57.847Z,32.30
2023-03-03T13:28:34.901Z,30.10
2023-03-03T13:31:12.442Z,32.47
2023-03-03T13:33:49.050Z,29.43
2023-03-03T13:36:19.422Z,34.90
2023-03-03T13:38:53.475Z,29.67
2023-03-03T13:41:28.005Z,30.60
2023-03-03T13:44:02.223Z,28.50
2023-03-03T13:46:40.539Z,30.23
2023-03-03T13:49:36.807Z,33.23
2023-03-03T13:52:10.256Z,31.53
2023-03-03T13:55:01.010Z,31.03
2023-03-03T13:57:46.673Z,32.97
2023-03-03T14:00:27.875Z,27.30
2023-03-03T14:03:19.767Z,31.07
2023-03-03T14:05:51.280Z,30.33
2023-03-03T14:08:39.792Z,33.07
2023-03-03T14:11:15.217Z,30.97
2023-03-03T14:13:56.942Z,32.27
2023-03-03T14:16:44.961Z,29.37
2023-03-03T14:19:18.876Z,34.67
2023-03-03T14:22:00.369Z,31.73
2023-03-03T14:24:29.361Z,32.60
2023-03-03T14:27:01.055Z,29.50
2023-03-03T14:29:34.905Z,27.93
2023-03-03T14:32:25.167Z,29.13
2023-03-03T14:35:01.261Z,33.53
2023-03-03T14:37:32.090Z,31.40
2023-03-03T14:40:17.858Z,30.97
2023-03-03T14:42:55.269Z,34.27
2023-03-03T14:45:36.131Z,35.00
2023-03-03T14:48:17.534Z,29.63
2023-03-03T14:50:53.705Z,35.40
2023-03-03T14:53:33.257Z,34.27
2023-03-03T14:56:24.046Z,30.90
2023-03-03T14:58:55.261Z,31.07
2023-03-03T15:01:32.213Z,29.03
2023-03-03T15:04:02.971Z,31.07
2023-03-03T15:06:43.580Z,31.57
2023-03-03T15:09:43.225Z,31.50
2023-03-03T15:12:37.234Z,30.43
2023-03-03T15:15:19.501Z,29.77
2023-03-03T15:18:00.789Z,27.40
2023-03-03T15:20:39.472Z,29.33
2023-03-03T15:23:37.962Z,32.53
2023-03-03T15:26:12.110Z,35.70
2023-03-03T15:28:59.449Z,31.00
2023-03-03T15:31:43.823Z,30.03
2023-03-03T15:34:28.209Z,31.40
2023-03-03T15:37:08.748Z,28.17
2023-03-03T15:39:47.379Z,30.80
2023-03-03T15:42:21.550Z,29.93
2023-03-03T15:45:01.559Z,31.17
2023-03-03T15:48:01.036Z,35.47
2023-03-03T15:50:45.748Z,31.10
2023-03-03T15:53:36.386Z,28.47
2023-03-03T15:56:20.795Z,30.00
2023-03-03T15:59:35.272Z,30.30
2023-03-03T16:02:17.198Z,30.27
2023-03-03T16:04:56.656Z,32.60
2023-03-03T16:07:37.274Z,31.60
2023-03-03T16:10:19.645Z,29.47
2023-03-03T16:12:57.467Z,30.33
2023-03-03T16:15:52.395Z,33.40
2023-03-03T16:18:34.456Z,29.17
2023-03-03T16:21:22.104Z,31.70
2023-03-03T16:23:53.401Z,30.73
2023-03-03T16:26:44.812Z,32.27
2023-03-03T16:29:37.192Z,28.60
2023-03-03T16:32:13.310Z,32.43
2023-03-03T16:34:56.620Z,29.13
2023-03-03T16:37:32.937Z,30.37
2023-03-03T16:40:11.882Z,33.60
2023-03-03T16:42:40.125Z,30.50
2023-03-03T16:45:23.367Z,31.43
2023-03-03T16:48:06.932Z,30.40
2023-03-03T16:50:45.908Z,30.40
2023-03-03T16:53:32.036Z,27.70
2023-03-03T16:56:09.443Z,29.50
2023-03-03T16:58:50.893Z,30.50
2023-03-03T17:08:04.603Z,29.73
2023-03-03T17:10:39.050Z,27.87
2023-03-03T17:13:34.362Z,25.83
2023-03-03T17:16:14.374Z,25.83
2023-03-03T17:19:00.672Z,25.63
2023-03-03T17:21:45.400Z,28.03
2023-03-03T17:24:23.747Z,38.43
2023-03-03T17:27:09.376Z,37.27
2023-03-03T17:29:56.838Z,72.23
2023-03-03T17:32:46.465Z,64.30
2023-03-03T17:35:32.564Z,30.30
2023-03-03T17:38:08.086Z,29.80
2023-03-03T17:40:50.603Z,40.60
2023-03-03T17:43:25.197Z,33.03
2023-03-03T17:45:57.589Z,28.20
2023-03-03T17:49:05.865Z,28.17
2023-03-03T17:52:09.130Z,26.53
2023-03-03T17:55:24.805Z,28.17
2023-03-03T17:58:13.176Z,25.60
2023-03-03T18:00:56.510Z,29.37
2023-03-03T18:03:39.826Z,28.53
2023-03-03T18:06:31.281Z,33.17
2023-03-03T18:09:22.930Z,29.07
2023-03-03T18:12:13.058Z,25.33
2023-03-03T18:15:18.816Z,27.50
2023-03-03T18:18:11.250Z,25.57
2023-03-03T18:21:03.984Z,26.37
2023-03-03T18:23:43.667Z,31.23
2023-03-03T18:26:40.253Z,26.43
2023-03-03T18:29:26.325Z,27.73
2023-03-03T18:32:19.757Z,26.47
2023-03-03T18:34:52.606Z,26.70
2023-03-03T18:37:45.160Z,28.23
2023-03-03T18:40:30.195Z,30.87
2023-03-03T18:42:58.530Z,39.90
2023-03-03T18:45:50.713Z,35.23
2023-03-03T18:48:20.127Z,27.87
2023-03-03T18:50:52.528Z,30.00
2023-03-03T18:53:26.517Z,24.67
2023-03-03T18:55:56.605Z,22.73
2023-03-03T18:58:41.900Z,27.40
2023-03-03T19:01:44.015Z,27.40
2023-03-03T19:04:24.661Z,25.97
2023-03-03T19:07:27.628Z,26.40
2023-03-03T19:10:01.938Z,32.97
2023-03-03T19:12:53.098Z,30.83
2023-03-03T19:15:58.024Z,28.77
2023-03-03T19:18:28.218Z,26.23
2023-03-03T19:21:01.069Z,29.20
2023-03-03T19:23:52.646Z,28.90
2023-03-03T19:26:55.895Z,31.03
2023-03-03T19:30:08.998Z,29.07
2023-03-03T19:33:10.568Z,30.97
2023-03-03T19:35:51.959Z,31.30
2023-03-03T19:38:35.430Z,27.03
2023-03-03T19:41:19.327Z,29.53
2023-03-03T19:44:02.247Z,24.67
2023-03-03T19:46:50.407Z,27.73
2023-03-03T19:49:33.337Z,28.20
2023-03-03T19:52:07.975Z,30.17
2023-03-03T19:54:57.054Z,34.00
2023-03-03T19:57:42.022Z,33.33
2023-03-03T20:00:24.652Z,39.47
2023-03-03T20:03:34.114Z,32.87
2023-03-03T20:06:21.348Z,37.67
2023-03-03T20:09:00.111Z,35.07
2023-03-03T20:12:22.044Z,33.83
2023-03-03T20:14:55.242Z,30.27
2023-03-03T20:17:56.632Z,27.80
2023-03-03T20:20:53.098Z,24.10
2023-03-03T20:23:28.945Z,24.60
2023-03-03T20:26:03.493Z,25.77
2023-03-03T20:28:57.082Z,34.70
2023-03-03T20:31:34.401Z,26.90
2023-03-03T20:34:12.638Z,26.13
2023-03-03T20:36:56.258Z,26.80
2023-03-03T20:39:42.183Z,22.10
2023-03-03T20:42:22.363Z,23.67
2023-03-03T20:45:19.222Z,26.07
2023-03-03T20:48:02.849Z,22.13
2023-03-03T20:50:37.588Z,23.27
2023-03-03T20:53:19.383Z,20.77
2023-03-03T20:56:00.856Z,25.97
2023-03-03T20:58:44.230Z,27.20
2023-03-03T21:01:16.559Z,31.97
2023-03-03T21:03:50.221Z,32.33
2023-03-03T21:06:22.289Z,30.47
2023-03-03T21:08:53.636Z,30.63
2023-03-03T21:11:24.376Z,28.50
2023-03-03T21:13:54.269Z,24.40
2023-03-03T21:16:35.654Z,21.23
2023-03-03T21:19:06.741Z,21.20
2023-03-03T21:21:37.504Z,18.53
2023-03-03T21:24:07.302Z,21.40
2023-03-03T21:26:53.299Z,24.17
2023-03-03T21:29:26.328Z,20.83
2023-03-03T21:31:58.075Z,22.63
2023-03-03T21:34:34.440Z,23.67
2023-03-03T21:37:06.560Z,26.30
2023-03-03T21:39:36.647Z,21.90
2023-03-03T21:42:07.712Z,24.97
2023-03-03T21:44:40.230Z,20.73
2023-03-03T21:47:12.447Z,25.17
2023-03-03T21:49:43.410Z,24.80
2023-03-03T21:52:12.830Z,22.40
2023-03-03T21:54:41.768Z,23.83
2023-03-03T21:57:10.158Z,24.70
2023-03-03T21:59:38.429Z,22.83
2023-03-03T22:02:07.581Z,26.80
2023-03-03T22:04:38.860Z,21.03
2023-03-03T22:07:07.379Z,26.10
2023-03-03T22:09:36.232Z,24.23
2023-03-03T22:12:04.840Z,22.17
2023-03-03T22:14:33.100Z,28.47
2023-03-03T22:17:01.405Z,21.07
2023-03-03T22:19:29.671Z,20.70
2023-03-03T22:21:59.205Z,25.63
2023-03-03T22:24:27.442Z,23.63
2023-03-03T22:26:55.642Z,25.60
2023-03-03T22:29:23.919Z,21.87
2023-03-03T22:31:52.365Z,25.77
2023-03-03T22:34:20.903Z,28.57
2023-03-03T22:36:49.157Z,28.93
2023-03-03T22:39:18.838Z,25.73
2023-03-03T22:41:47.218Z,29.80
2023-03-03T22:44:15.440Z,27.53
2023-03-03T22:46:43.647Z,26.87
2023-03-03T22:49:12.178Z,25.63
2023-03-03T22:51:40.474Z,25.33
2023-03-03T22:54:08.782Z,24.63
2023-03-03T22:56:38.440Z,26.20
2023-03-03T22:59:06.674Z,24.77
2023-03-03T23:01:34.897Z,26.33
2023-03-03T23:04:06.857Z,22.13
2023-03-03T23:06:35.978Z,26.37
2023-03-03T23:09:04.290Z,24.07
2023-03-03T23:11:33.564Z,22.17
2023-03-03T23:14:03.108Z,22.00
2023-03-03T23:16:31.512Z,26.00
2023-03-03T23:18:59.757Z,28.23
2023-03-03T23:21:28.100Z,21.93
2023-03-03T23:23:56.258Z,22.93
2023-03-03T23:26:24.549Z,26.73
2023-03-03T23:28:52.710Z,25.20
2023-03-03T23:31:22.444Z,21.57
2023-03-03T23:33:50.659Z,29.63
2023-03-03T23:36:18.857Z,22.93
2023-03-03T23:38:47.056Z,23.53
2023-03-03T23:41:15.302Z,20.97
2023-03-03T23:43:43.494Z,24.47
2023-03-03T23:46:11.891Z,23.50
2023-03-03T23:48:41.505Z,23.40
2023-03-03T23:51:09.765Z,26.93
2023-03-03T23:53:38.000Z,24.60
2023-03-03T23:56:07.271Z,26.23
2023-03-03T23:58:35.620Z,26.23
